sensor_id;sensor_type;location;lat;lon;timestamp;temperature;humidity
47414;DHT22;33163;0.000;0.000;2023-04-01T00:01:28;18.90;65.30
47414;DHT22;33163;0.000;0.000;2023-04-01T00:03:55;18.90;65.20
47414;DHT22;33163;0.000;0.000;2023-04-01T00:06:23;18.90;65.20
47414;DHT22;33163;0.000;0.000;2023-04-01T00:08:49;18.90;65.20
47414;DHT22;33163;0.000;0.000;2023-04-01T00:11:16;18.90;65.10
47414;DHT22;33163;0.000;0.000;2023-04-01T00:13:44;18.90;65.10
47414;DHT22;33163;0.000;0.000;2023-04-01T00:16:12;18.90;65.00
47414;DHT22;33163;0.000;0.000;2023-04-01T00:18:39;18.90;65.00
47414;DHT22;33163;0.000;0.000;2023-04-01T00:21:07;18.90;65.00
47414;DHT22;33163;0.000;0.000;2023-04-01T00:23:34;18.90;65.00
47414;DHT22;33163;0.000;0.000;2023-04-01T00:26:01;18.90;65.00
47414;DHT22;33163;0.000;0.000;2023-04-01T00:28:29;18.90;65.00
47414;DHT22;33163;0.000;0.000;2023-04-01T00:30:55;18.90;64.90
47414;DHT22;33163;0.000;0.000;2023-04-01T00:33:23;18.90;64.90
47414;DHT22;33163;0.000;0.000;2023-04-01T00:35:50;18.90;64.90
47414;DHT22;33163;0.000;0.000;2023-04-01T00:38:17;18.90;64.90
47414;DHT22;33163;0.000;0.000;2023-04-01T00:40:46;18.80;64.90
47414;DHT22;33163;0.000;0.000;2023-04-01T00:43:15;18.90;65.00
47414;DHT22;33163;0.000;0.000;2023-04-01T00:45:44;18.90;65.00
47414;DHT22;33163;0.000;0.000;2023-04-01T00:48:14;18.90;65.00
47414;DHT22;33163;0.000;0.000;2023-04-01T00:50:46;18.90;64.90
47414;DHT22;33163;0.000;0.000;2023-04-01T00:53:14;18.90;65.00
47414;DHT22;33163;0.000;0.000;2023-04-01T00:55:48;18.90;65.00
47414;DHT22;33163;0.000;0.000;2023-04-01T00:58:17;18.90;64.90
47414;DHT22;33163;0.000;0.000;2023-04-01T01:00:48;18.80;64.80
47414;DHT22;33163;0.000;0.000;2023-04-01T01:03:16;18.90;64.90
47414;DHT22;33163;0.000;0.000;2023-04-01T01:06:00;18.80;64.80
47414;DHT22;33163;0.000;0.000;2023-04-01T01:08:42;18.90;64.80
47414;DHT22;33163;0.000;0.000;2023-04-01T01:11:12;18.80;64.70
47414;DHT22;33163;0.000;0.000;2023-04-01T01:13:45;18.80;64.70
47414;DHT22;33163;0.000;0.000;2023-04-01T01:16:20;18.80;64.70
47414;DHT22;33163;0.000;0.000;2023-04-01T01:18:53;18.80;64.70
47414;DHT22;33163;0.000;0.000;2023-04-01T01:21:46;18.80;64.60
47414;DHT22;33163;0.000;0.000;2023-04-01T01:24:35;18.80;64.70
47414;DHT22;33163;0.000;0.000;2023-04-01T01:27:08;18.80;64.60
47414;DHT22;33163;0.000;0.000;2023-04-01T01:29:54;18.80;64.60
47414;DHT22;33163;0.000;0.000;2023-04-01T01:32:52;18.80;64.60
47414;DHT22;33163;0.000;0.000;2023-04-01T01:35:24;18.80;64.60
47414;DHT22;33163;0.000;0.000;2023-04-01T01:37:55;18.80;64.50
47414;DHT22;33163;0.000;0.000;2023-04-01T01:40:23;18.80;64.40
47414;DHT22;33163;0.000;0.000;2023-04-01T01:42:54;18.80;64.40
47414;DHT22;33163;0.000;0.000;2023-04-01T01:45:24;18.80;64.50
47414;DHT22;33163;0.000;0.000;2023-04-01T01:47:52;18.80;64.40
47414;DHT22;33163;0.000;0.000;2023-04-01T01:50:23;18.80;64.40
47414;DHT22;33163;0.000;0.000;2023-04-01T01:52:50;18.80;64.50
47414;DHT22;33163;0.000;0.000;2023-04-01T01:55:27;18.70;64.40
47414;DHT22;33163;0.000;0.000;2023-04-01T01:57:56;18.80;64.40
47414;DHT22;33163;0.000;0.000;2023-04-01T02:00:25;18.80;64.30
47414;DHT22;33163;0.000;0.000;2023-04-01T02:02:53;18.80;64.30
47414;DHT22;33163;0.000;0.000;2023-04-01T02:05:24;18.70;64.20
47414;DHT22;33163;0.000;0.000;2023-04-01T02:07:57;18.80;64.20
47414;DHT22;33163;0.000;0.000;2023-04-01T02:10:27;18.70;64.20
47414;DHT22;33163;0.000;0.000;2023-04-01T02:12:59;18.80;64.30
47414;DHT22;33163;0.000;0.000;2023-04-01T02:15:30;18.80;64.30
47414;DHT22;33163;0.000;0.000;2023-04-01T02:18:00;18.70;64.20
47414;DHT22;33163;0.000;0.000;2023-04-01T02:20:30;18.70;64.20
47414;DHT22;33163;0.000;0.000;2023-04-01T02:22:57;18.70;64.20
47414;DHT22;33163;0.000;0.000;2023-04-01T02:25:27;18.70;64.30
47414;DHT22;33163;0.000;0.000;2023-04-01T02:27:55;18.70;64.20
47414;DHT22;33163;0.000;0.000;2023-04-01T02:30:23;18.70;64.20
47414;DHT22;33163;0.000;0.000;2023-04-01T02:32:51;18.70;64.10
47414;DHT22;33163;0.000;0.000;2023-04-01T02:35:18;18.70;64.10
47414;DHT22;33163;0.000;0.000;2023-04-01T02:37:48;18.70;64.10
47414;DHT22;33163;0.000;0.000;2023-04-01T02:40:16;18.70;64.10
47414;DHT22;33163;0.000;0.000;2023-04-01T02:42:43;18.70;64.00
47414;DHT22;33163;0.000;0.000;2023-04-01T02:45:11;18.70;64.10
47414;DHT22;33163;0.000;0.000;2023-04-01T02:47:38;18.70;64.00
47414;DHT22;33163;0.000;0.000;2023-04-01T02:50:06;18.70;64.00
47414;DHT22;33163;0.000;0.000;2023-04-01T02:52:33;18.70;63.90
47414;DHT22;33163;0.000;0.000;2023-04-01T02:55:01;18.70;63.90
47414;DHT22;33163;0.000;0.000;2023-04-01T02:57:28;18.70;63.90
47414;DHT22;33163;0.000;0.000;2023-04-01T02:59:55;18.70;64.00
47414;DHT22;33163;0.000;0.000;2023-04-01T03:02:22;18.70;64.00
47414;DHT22;33163;0.000;0.000;2023-04-01T03:04:49;18.70;64.00
47414;DHT22;33163;0.000;0.000;2023-04-01T03:07:15;18.70;63.90
47414;DHT22;33163;0.000;0.000;2023-04-01T03:09:42;18.70;63.90
47414;DHT22;33163;0.000;0.000;2023-04-01T03:12:10;18.70;63.90
47414;DHT22;33163;0.000;0.000;2023-04-01T03:14:37;18.70;63.90
47414;DHT22;33163;0.000;0.000;2023-04-01T03:17:04;18.70;63.90
47414;DHT22;33163;0.000;0.000;2023-04-01T03:19:30;18.70;63.90
47414;DHT22;33163;0.000;0.000;2023-04-01T03:21:57;18.70;63.90
47414;DHT22;33163;0.000;0.000;2023-04-01T03:24:24;18.70;63.90
47414;DHT22;33163;0.000;0.000;2023-04-01T03:26:51;18.70;63.90
47414;DHT22;33163;0.000;0.000;2023-04-01T03:29:19;18.70;63.90
47414;DHT22;33163;0.000;0.000;2023-04-01T03:31:45;18.70;64.50
47414;DHT22;33163;0.000;0.000;2023-04-01T03:34:12;18.70;63.90
47414;DHT22;33163;0.000;0.000;2023-04-01T03:36:39;18.60;63.90
47414;DHT22;33163;0.000;0.000;2023-04-01T03:39:06;18.60;63.90
47414;DHT22;33163;0.000;0.000;2023-04-01T03:41:34;18.60;63.90
47414;DHT22;33163;0.000;0.000;2023-04-01T03:44:01;18.60;64.50
47414;DHT22;33163;0.000;0.000;2023-04-01T03:46:29;18.60;63.90
47414;DHT22;33163;0.000;0.000;2023-04-01T03:48:56;18.60;63.80
47414;DHT22;33163;0.000;0.000;2023-04-01T03:51:23;18.60;63.90
47414;DHT22;33163;0.000;0.000;2023-04-01T03:53:49;18.60;63.90
47414;DHT22;33163;0.000;0.000;2023-04-01T03:56:16;18.60;63.90
47414;DHT22;33163;0.000;0.000;2023-04-01T03:58:43;18.60;63.90
47414;DHT22;33163;0.000;0.000;2023-04-01T04:01:14;18.60;63.90
47414;DHT22;33163;0.000;0.000;2023-04-01T04:03:42;18.60;63.90
47414;DHT22;33163;0.000;0.000;2023-04-01T04:06:11;18.60;63.90
47414;DHT22;33163;0.000;0.000;2023-04-01T04:08:38;18.60;63.90
47414;DHT22;33163;0.000;0.000;2023-04-01T04:11:05;18.60;63.90
47414;DHT22;33163;0.000;0.000;2023-04-01T04:13:32;18.60;63.90
47414;DHT22;33163;0.000;0.000;2023-04-01T04:15:59;18.60;63.90
47414;DHT22;33163;0.000;0.000;2023-04-01T04:18:25;18.60;63.80
47414;DHT22;33163;0.000;0.000;2023-04-01T04:20:54;18.60;63.80
47414;DHT22;33163;0.000;0.000;2023-04-01T04:23:21;18.60;63.80
47414;DHT22;33163;0.000;0.000;2023-04-01T04:25:58;18.60;63.80
47414;DHT22;33163;0.000;0.000;2023-04-01T04:28:25;18.60;63.70
47414;DHT22;33163;0.000;0.000;2023-04-01T04:30:52;18.60;63.80
47414;DHT22;33163;0.000;0.000;2023-04-01T04:33:20;18.60;63.80
47414;DHT22;33163;0.000;0.000;2023-04-01T04:35:47;18.50;63.70
47414;DHT22;33163;0.000;0.000;2023-04-01T04:38:15;18.60;63.80
47414;DHT22;33163;0.000;0.000;2023-04-01T04:40:43;18.60;63.80
47414;DHT22;33163;0.000;0.000;2023-04-01T04:43:12;18.60;63.90
47414;DHT22;33163;0.000;0.000;2023-04-01T04:45:40;18.50;63.80
47414;DHT22;33163;0.000;0.000;2023-04-01T04:48:07;18.50;63.80
47414;DHT22;33163;0.000;0.000;2023-04-01T04:50:35;18.50;63.80
47414;DHT22;33163;0.000;0.000;2023-04-01T04:53:02;18.60;63.80
47414;DHT22;33163;0.000;0.000;2023-04-01T04:55:30;18.60;63.80
47414;DHT22;33163;0.000;0.000;2023-04-01T04:57:57;18.50;63.70
47414;DHT22;33163;0.000;0.000;2023-04-01T05:00:24;18.50;63.70
47414;DHT22;33163;0.000;0.000;2023-04-01T05:02:51;18.50;63.70
47414;DHT22;33163;0.000;0.000;2023-04-01T05:05:18;18.50;63.70
47414;DHT22;33163;0.000;0.000;2023-04-01T05:07:44;18.50;63.70
47414;DHT22;33163;0.000;0.000;2023-04-01T05:10:11;18.50;63.70
47414;DHT22;33163;0.000;0.000;2023-04-01T05:12:39;18.50;63.70
47414;DHT22;33163;0.000;0.000;2023-04-01T05:15:07;18.60;63.70
47414;DHT22;33163;0.000;0.000;2023-04-01T05:17:34;18.60;64.30
47414;DHT22;33163;0.000;0.000;2023-04-01T05:20:01;18.50;63.60
47414;DHT22;33163;0.000;0.000;2023-04-01T05:22:28;18.50;63.60
47414;DHT22;33163;0.000;0.000;2023-04-01T05:24:55;18.50;63.60
47414;DHT22;33163;0.000;0.000;2023-04-01T05:27:22;18.50;63.50
47414;DHT22;33163;0.000;0.000;2023-04-01T05:29:50;18.50;63.50
47414;DHT22;33163;0.000;0.000;2023-04-01T05:32:17;18.50;63.50
47414;DHT22;33163;0.000;0.000;2023-04-01T05:34:44;18.50;63.50
47414;DHT22;33163;0.000;0.000;2023-04-01T05:37:10;18.50;63.50
47414;DHT22;33163;0.000;0.000;2023-04-01T05:39:37;18.50;63.50
47414;DHT22;33163;0.000;0.000;2023-04-01T05:42:06;18.50;63.60
47414;DHT22;33163;0.000;0.000;2023-04-01T05:44:33;18.50;63.60
47414;DHT22;33163;0.000;0.000;2023-04-01T05:47:01;18.50;63.60
47414;DHT22;33163;0.000;0.000;2023-04-01T05:49:29;18.50;63.60
47414;DHT22;33163;0.000;0.000;2023-04-01T05:51:56;18.50;63.60
47414;DHT22;33163;0.000;0.000;2023-04-01T05:54:23;18.50;63.60
47414;DHT22;33163;0.000;0.000;2023-04-01T05:56:49;18.50;63.60
47414;DHT22;33163;0.000;0.000;2023-04-01T05:59:16;18.50;63.60
47414;DHT22;33163;0.000;0.000;2023-04-01T06:01:43;18.40;63.60
47414;DHT22;33163;0.000;0.000;2023-04-01T06:04:13;18.50;63.60
47414;DHT22;33163;0.000;0.000;2023-04-01T06:06:41;18.50;63.50
47414;DHT22;33163;0.000;0.000;2023-04-01T06:09:13;18.50;63.40
47414;DHT22;33163;0.000;0.000;2023-04-01T06:11:51;18.50;63.40
47414;DHT22;33163;0.000;0.000;2023-04-01T06:14:29;18.60;63.40
47414;DHT22;33163;0.000;0.000;2023-04-01T06:17:09;18.50;63.30
47414;DHT22;33163;0.000;0.000;2023-04-01T06:19:44;18.60;63.20
47414;DHT22;33163;0.000;0.000;2023-04-01T06:22:27;18.60;63.20
47414;DHT22;33163;0.000;0.000;2023-04-01T06:27:59;18.60;63.10
47414;DHT22;33163;0.000;0.000;2023-04-01T06:30:34;18.70;63.10
47414;DHT22;33163;0.000;0.000;2023-04-01T06:36:15;18.70;63.30
47414;DHT22;33163;0.000;0.000;2023-04-01T06:39:00;18.70;63.50
47414;DHT22;33163;0.000;0.000;2023-04-01T06:44:37;18.70;63.90
47414;DHT22;33163;0.000;0.000;2023-04-01T06:47:19;18.70;63.90
47414;DHT22;33163;0.000;0.000;2023-04-01T06:49:56;18.70;64.00
47414;DHT22;33163;0.000;0.000;2023-04-01T06:52:36;18.80;64.20
47414;DHT22;33163;0.000;0.000;2023-04-01T06:55:18;18.80;64.20
47414;DHT22;33163;0.000;0.000;2023-04-01T06:57:49;18.80;64.30
47414;DHT22;33163;0.000;0.000;2023-04-01T07:00:22;18.80;64.40
47414;DHT22;33163;0.000;0.000;2023-04-01T07:02:55;18.90;64.40
47414;DHT22;33163;0.000;0.000;2023-04-01T07:05:31;18.80;65.00
47414;DHT22;33163;0.000;0.000;2023-04-01T07:08:02;18.90;64.40
47414;DHT22;33163;0.000;0.000;2023-04-01T07:10:35;18.90;64.40
47414;DHT22;33163;0.000;0.000;2023-04-01T07:13:14;18.90;64.60
47414;DHT22;33163;0.000;0.000;2023-04-01T07:15:43;18.90;64.50
47414;DHT22;33163;0.000;0.000;2023-04-01T07:18:15;19.00;64.60
47414;DHT22;33163;0.000;0.000;2023-04-01T07:20:43;19.00;64.60
47414;DHT22;33163;0.000;0.000;2023-04-01T07:23:19;19.00;64.60
47414;DHT22;33163;0.000;0.000;2023-04-01T07:25:51;19.00;64.60
47414;DHT22;33163;0.000;0.000;2023-04-01T07:28:18;19.00;64.60
47414;DHT22;33163;0.000;0.000;2023-04-01T07:30:52;19.00;64.50
47414;DHT22;33163;0.000;0.000;2023-04-01T07:33:32;19.00;64.60
47414;DHT22;33163;0.000;0.000;2023-04-01T07:36:05;19.00;64.70
47414;DHT22;33163;0.000;0.000;2023-04-01T07:38:41;19.00;64.70
47414;DHT22;33163;0.000;0.000;2023-04-01T07:41:19;19.00;64.60
47414;DHT22;33163;0.000;0.000;2023-04-01T07:43:57;19.00;64.80
47414;DHT22;33163;0.000;0.000;2023-04-01T07:46:53;19.00;65.10
47414;DHT22;33163;0.000;0.000;2023-04-01T07:49:26;19.00;65.30
47414;DHT22;33163;0.000;0.000;2023-04-01T07:52:01;19.00;65.40
47414;DHT22;33163;0.000;0.000;2023-04-01T07:54:37;19.00;65.20
47414;DHT22;33163;0.000;0.000;2023-04-01T07:57:12;19.00;65.50
47414;DHT22;33163;0.000;0.000;2023-04-01T07:59:45;19.00;65.60
47414;DHT22;33163;0.000;0.000;2023-04-01T08:02:26;19.00;65.50
47414;DHT22;33163;0.000;0.000;2023-04-01T08:05:03;19.00;65.50
47414;DHT22;33163;0.000;0.000;2023-04-01T08:07:36;19.00;65.40
47414;DHT22;33163;0.000;0.000;2023-04-01T08:10:11;19.00;65.50
47414;DHT22;33163;0.000;0.000;2023-04-01T08:12:47;19.00;65.80
47414;DHT22;33163;0.000;0.000;2023-04-01T08:15:22;19.00;65.70
47414;DHT22;33163;0.000;0.000;2023-04-01T08:18:00;19.00;65.80
47414;DHT22;33163;0.000;0.000;2023-04-01T08:20:36;19.00;65.80
47414;DHT22;33163;0.000;0.000;2023-04-01T08:23:09;19.00;66.30
47414;DHT22;33163;0.000;0.000;2023-04-01T08:25:42;19.00;66.30
47414;DHT22;33163;0.000;0.000;2023-04-01T08:28:16;19.00;66.50
47414;DHT22;33163;0.000;0.000;2023-04-01T08:30:47;18.90;66.60
47414;DHT22;33163;0.000;0.000;2023-04-01T08:33:19;18.90;66.50
47414;DHT22;33163;0.000;0.000;2023-04-01T08:35:51;19.00;66.50
47414;DHT22;33163;0.000;0.000;2023-04-01T08:38:24;19.00;66.80
47414;DHT22;33163;0.000;0.000;2023-04-01T08:41:00;19.00;66.50
47414;DHT22;33163;0.000;0.000;2023-04-01T08:46:34;18.90;66.80
47414;DHT22;33163;0.000;0.000;2023-04-01T08:49:17;18.90;66.20
47414;DHT22;33163;0.000;0.000;2023-04-01T08:52:11;18.90;66.50
47414;DHT22;33163;0.000;0.000;2023-04-01T08:55:00;18.90;66.40
47414;DHT22;33163;0.000;0.000;2023-04-01T08:57:38;18.90;66.80
47414;DHT22;33163;0.000;0.000;2023-04-01T09:00:15;19.00;67.00
47414;DHT22;33163;0.000;0.000;2023-04-01T09:02:55;19.00;67.10
47414;DHT22;33163;0.000;0.000;2023-04-01T09:05:35;19.00;66.90
47414;DHT22;33163;0.000;0.000;2023-04-01T09:08:24;18.90;67.30
47414;DHT22;33163;0.000;0.000;2023-04-01T09:11:08;18.90;67.10
47414;DHT22;33163;0.000;0.000;2023-04-01T09:13:50;18.90;67.10
47414;DHT22;33163;0.000;0.000;2023-04-01T09:19:21;18.90;66.90
47414;DHT22;33163;0.000;0.000;2023-04-01T09:22:02;19.00;66.90
47414;DHT22;33163;0.000;0.000;2023-04-01T09:25:02;19.00;66.80
47414;DHT22;33163;0.000;0.000;2023-04-01T09:27:39;19.00;66.90
47414;DHT22;33163;0.000;0.000;2023-04-01T09:33:49;19.10;66.70
47414;DHT22;33163;0.000;0.000;2023-04-01T09:36:35;19.10;66.40
47414;DHT22;33163;0.000;0.000;2023-04-01T09:39:26;19.10;66.40
47414;DHT22;33163;0.000;0.000;2023-04-01T09:42:14;19.00;66.70
47414;DHT22;33163;0.000;0.000;2023-04-01T09:44:45;19.00;66.80
47414;DHT22;33163;0.000;0.000;2023-04-01T09:47:26;19.00;66.80
47414;DHT22;33163;0.000;0.000;2023-04-01T09:50:17;19.00;66.70
47414;DHT22;33163;0.000;0.000;2023-04-01T09:53:01;19.00;66.90
47414;DHT22;33163;0.000;0.000;2023-04-01T09:56:05;18.90;66.90
47414;DHT22;33163;0.000;0.000;2023-04-01T10:02:03;18.90;66.80
47414;DHT22;33163;0.000;0.000;2023-04-01T10:05:04;18.90;66.80
47414;DHT22;33163;0.000;0.000;2023-04-01T10:11:32;18.90;66.90
47414;DHT22;33163;0.000;0.000;2023-04-01T10:14:23;18.90;67.10
47414;DHT22;33163;0.000;0.000;2023-04-01T10:17:25;18.90;67.10
47414;DHT22;33163;0.000;0.000;2023-04-01T10:20:31;18.90;66.90
47414;DHT22;33163;0.000;0.000;2023-04-01T10:23:20;19.00;66.90
47414;DHT22;33163;0.000;0.000;2023-04-01T10:29:07;19.00;67.10
47414;DHT22;33163;0.000;0.000;2023-04-01T10:32:11;19.00;67.10
47414;DHT22;33163;0.000;0.000;2023-04-01T10:38:14;19.00;66.70
47414;DHT22;33163;0.000;0.000;2023-04-01T10:41:02;19.00;67.10
47414;DHT22;33163;0.000;0.000;2023-04-01T10:43:53;19.00;66.80
47414;DHT22;33163;0.000;0.000;2023-04-01T10:46:54;19.00;66.70
47414;DHT22;33163;0.000;0.000;2023-04-01T10:49:46;19.00;66.70
47414;DHT22;33163;0.000;0.000;2023-04-01T10:55:19;19.00;66.80
47414;DHT22;33163;0.000;0.000;2023-04-01T10:58:25;19.00;66.80
47414;DHT22;33163;0.000;0.000;2023-04-01T11:01:12;19.00;67.00
47414;DHT22;33163;0.000;0.000;2023-04-01T11:04:13;19.00;67.10
47414;DHT22;33163;0.000;0.000;2023-04-01T11:07:22;19.10;66.90
47414;DHT22;33163;0.000;0.000;2023-04-01T11:13:12;19.10;66.70
47414;DHT22;33163;0.000;0.000;2023-04-01T11:19:09;19.10;66.90
47414;DHT22;33163;0.000;0.000;2023-04-01T11:22:09;19.10;67.50
47414;DHT22;33163;0.000;0.000;2023-04-01T11:25:17;19.10;67.80
47414;DHT22;33163;0.000;0.000;2023-04-01T11:33:55;19.00;68.40
47414;DHT22;33163;0.000;0.000;2023-04-01T11:36:37;19.00;68.40
47414;DHT22;33163;0.000;0.000;2023-04-01T11:39:15;19.10;68.70
47414;DHT22;33163;0.000;0.000;2023-04-01T11:41:54;19.10;68.90
47414;DHT22;33163;0.000;0.000;2023-04-01T11:44:25;19.10;69.00
47414;DHT22;33163;0.000;0.000;2023-04-01T11:47:09;19.00;69.10
47414;DHT22;33163;0.000;0.000;2023-04-01T11:49:48;19.10;69.20
47414;DHT22;33163;0.000;0.000;2023-04-01T11:52:21;19.00;69.10
47414;DHT22;33163;0.000;0.000;2023-04-01T11:54:58;19.10;69.40
47414;DHT22;33163;0.000;0.000;2023-04-01T11:57:44;19.10;69.30
47414;DHT22;33163;0.000;0.000;2023-04-01T12:00:32;19.00;69.00
47414;DHT22;33163;0.000;0.000;2023-04-01T12:03:17;19.10;68.80
47414;DHT22;33163;0.000;0.000;2023-04-01T12:05:51;19.00;68.90
47414;DHT22;33163;0.000;0.000;2023-04-01T12:08:34;19.00;68.70
47414;DHT22;33163;0.000;0.000;2023-04-01T12:11:09;19.00;68.70
47414;DHT22;33163;0.000;0.000;2023-04-01T12:13:45;18.90;68.50
47414;DHT22;33163;0.000;0.000;2023-04-01T12:16:31;19.00;68.50
47414;DHT22;33163;0.000;0.000;2023-04-01T12:19:09;18.90;68.40
47414;DHT22;33163;0.000;0.000;2023-04-01T12:21:41;19.00;68.40
47414;DHT22;33163;0.000;0.000;2023-04-01T12:27:13;18.90;68.30
47414;DHT22;33163;0.000;0.000;2023-04-01T12:30:17;19.00;68.20
47414;DHT22;33163;0.000;0.000;2023-04-01T12:32:57;18.90;68.20
47414;DHT22;33163;0.000;0.000;2023-04-01T12:35:35;18.90;68.20
47414;DHT22;33163;0.000;0.000;2023-04-01T12:38:16;18.90;68.20
47414;DHT22;33163;0.000;0.000;2023-04-01T12:46:34;18.90;68.20
47414;DHT22;33163;0.000;0.000;2023-04-01T12:49:26;18.90;68.20
47414;DHT22;33163;0.000;0.000;2023-04-01T12:52:07;18.90;68.30
47414;DHT22;33163;0.000;0.000;2023-04-01T12:55:13;18.90;68.20
47414;DHT22;33163;0.000;0.000;2023-04-01T13:01:00;18.90;68.30
47414;DHT22;33163;0.000;0.000;2023-04-01T13:03:48;18.90;68.20
47414;DHT22;33163;0.000;0.000;2023-04-01T13:06:44;18.90;68.20
47414;DHT22;33163;0.000;0.000;2023-04-01T13:09:29;18.90;68.30
47414;DHT22;33163;0.000;0.000;2023-04-01T13:12:29;19.00;68.10
47414;DHT22;33163;0.000;0.000;2023-04-01T13:15:12;19.00;67.90
47414;DHT22;33163;0.000;0.000;2023-04-01T13:17:47;19.10;67.50
47414;DHT22;33163;0.000;0.000;2023-04-01T13:20:22;19.10;67.30
47414;DHT22;33163;0.000;0.000;2023-04-01T13:23:02;19.10;67.20
47414;DHT22;33163;0.000;0.000;2023-04-01T13:25:38;19.20;67.30
47414;DHT22;33163;0.000;0.000;2023-04-01T13:28:11;19.20;67.30
47414;DHT22;33163;0.000;0.000;2023-04-01T13:30:42;19.20;67.30
47414;DHT22;33163;0.000;0.000;2023-04-01T13:33:17;19.10;67.50
47414;DHT22;33163;0.000;0.000;2023-04-01T13:35:50;19.20;67.70
47414;DHT22;33163;0.000;0.000;2023-04-01T13:38:41;19.10;67.70
47414;DHT22;33163;0.000;0.000;2023-04-01T13:41:19;19.10;67.80
47414;DHT22;33163;0.000;0.000;2023-04-01T13:43:51;19.10;67.80
47414;DHT22;33163;0.000;0.000;2023-04-01T13:46:42;19.10;67.90
47414;DHT22;33163;0.000;0.000;2023-04-01T13:49:47;19.20;67.90
47414;DHT22;33163;0.000;0.000;2023-04-01T13:52:49;19.20;67.80
47414;DHT22;33163;0.000;0.000;2023-04-01T13:58:28;19.10;67.80
47414;DHT22;33163;0.000;0.000;2023-04-01T14:01:05;19.10;67.90
47414;DHT22;33163;0.000;0.000;2023-04-01T14:03:57;19.10;67.90
47414;DHT22;33163;0.000;0.000;2023-04-01T14:06:37;19.20;67.90
47414;DHT22;33163;0.000;0.000;2023-04-01T14:09:36;19.20;67.70
47414;DHT22;33163;0.000;0.000;2023-04-01T14:12:14;19.20;67.50
47414;DHT22;33163;0.000;0.000;2023-04-01T14:14:56;19.20;67.30
47414;DHT22;33163;0.000;0.000;2023-04-01T14:17:41;19.30;67.30
47414;DHT22;33163;0.000;0.000;2023-04-01T14:20:32;19.30;67.20
47414;DHT22;33163;0.000;0.000;2023-04-01T14:23:13;19.30;67.20
47414;DHT22;33163;0.000;0.000;2023-04-01T14:28:35;19.30;67.10
47414;DHT22;33163;0.000;0.000;2023-04-01T14:31:23;19.30;67.20
47414;DHT22;33163;0.000;0.000;2023-04-01T14:34:00;19.40;67.30
47414;DHT22;33163;0.000;0.000;2023-04-01T14:36:45;19.40;67.30
47414;DHT22;33163;0.000;0.000;2023-04-01T14:39:27;19.40;67.20
47414;DHT22;33163;0.000;0.000;2023-04-01T14:42:06;19.50;67.00
47414;DHT22;33163;0.000;0.000;2023-04-01T14:45:02;19.50;67.00
47414;DHT22;33163;0.000;0.000;2023-04-01T14:47:44;19.50;66.80
47414;DHT22;33163;0.000;0.000;2023-04-01T14:50:15;19.60;66.70
47414;DHT22;33163;0.000;0.000;2023-04-01T14:52:57;19.60;66.80
47414;DHT22;33163;0.000;0.000;2023-04-01T14:55:32;19.50;67.00
47414;DHT22;33163;0.000;0.000;2023-04-01T14:58:08;19.50;67.00
47414;DHT22;33163;0.000;0.000;2023-04-01T15:00:48;19.50;67.20
47414;DHT22;33163;0.000;0.000;2023-04-01T15:03:20;19.50;67.20
47414;DHT22;33163;0.000;0.000;2023-04-01T15:05:52;19.50;67.10
47414;DHT22;33163;0.000;0.000;2023-04-01T15:08:24;19.50;67.20
47414;DHT22;33163;0.000;0.000;2023-04-01T15:11:13;19.50;67.10
47414;DHT22;33163;0.000;0.000;2023-04-01T15:13:59;19.40;67.30
47414;DHT22;33163;0.000;0.000;2023-04-01T15:16:32;19.40;67.40
47414;DHT22;33163;0.000;0.000;2023-04-01T15:19:10;19.40;67.60
47414;DHT22;33163;0.000;0.000;2023-04-01T15:21:54;19.40;67.50
47414;DHT22;33163;0.000;0.000;2023-04-01T15:24:24;19.30;67.60
47414;DHT22;33163;0.000;0.000;2023-04-01T15:27:12;19.40;67.40
47414;DHT22;33163;0.000;0.000;2023-04-01T15:32:54;19.50;67.10
47414;DHT22;33163;0.000;0.000;2023-04-01T15:35:34;19.50;67.10
47414;DHT22;33163;0.000;0.000;2023-04-01T15:38:06;19.50;66.90
47414;DHT22;33163;0.000;0.000;2023-04-01T15:40:40;19.50;67.00
47414;DHT22;33163;0.000;0.000;2023-04-01T15:43:19;19.50;67.00
47414;DHT22;33163;0.000;0.000;2023-04-01T15:45:58;19.50;66.90
47414;DHT22;33163;0.000;0.000;2023-04-01T15:48:39;19.60;67.00
47414;DHT22;33163;0.000;0.000;2023-04-01T15:57:15;19.60;66.50
47414;DHT22;33163;0.000;0.000;2023-04-01T16:00:11;19.60;66.50
47414;DHT22;33163;0.000;0.000;2023-04-01T16:02:46;19.60;66.50
47414;DHT22;33163;0.000;0.000;2023-04-01T16:05:27;19.50;66.50
47414;DHT22;33163;0.000;0.000;2023-04-01T16:08:10;19.50;66.50
47414;DHT22;33163;0.000;0.000;2023-04-01T16:10:51;19.50;66.50
47414;DHT22;33163;0.000;0.000;2023-04-01T16:13:30;19.50;66.50
47414;DHT22;33163;0.000;0.000;2023-04-01T16:16:09;19.40;66.50
47414;DHT22;33163;0.000;0.000;2023-04-01T16:18:51;19.40;66.60
47414;DHT22;33163;0.000;0.000;2023-04-01T16:21:33;19.40;66.70
47414;DHT22;33163;0.000;0.000;2023-04-01T16:24:12;19.40;66.90
47414;DHT22;33163;0.000;0.000;2023-04-01T16:26:47;19.40;66.80
47414;DHT22;33163;0.000;0.000;2023-04-01T16:29:22;19.50;66.70
47414;DHT22;33163;0.000;0.000;2023-04-01T16:31:57;19.40;66.60
47414;DHT22;33163;0.000;0.000;2023-04-01T16:34:30;19.40;66.50
47414;DHT22;33163;0.000;0.000;2023-04-01T16:37:05;19.40;66.60
47414;DHT22;33163;0.000;0.000;2023-04-01T16:39:41;19.40;66.60
47414;DHT22;33163;0.000;0.000;2023-04-01T16:42:26;19.50;66.50
47414;DHT22;33163;0.000;0.000;2023-04-01T16:45:02;19.50;66.50
47414;DHT22;33163;0.000;0.000;2023-04-01T16:47:40;19.50;66.50
47414;DHT22;33163;0.000;0.000;2023-04-01T16:50:14;19.60;67.00
47414;DHT22;33163;0.000;0.000;2023-04-01T16:52:57;19.50;67.50
47414;DHT22;33163;0.000;0.000;2023-04-01T16:55:34;19.60;68.00
47414;DHT22;33163;0.000;0.000;2023-04-01T16:58:02;19.60;69.20
47414;DHT22;33163;0.000;0.000;2023-04-01T17:00:31;19.60;68.20
47414;DHT22;33163;0.000;0.000;2023-04-01T17:03:11;19.70;68.60
47414;DHT22;33163;0.000;0.000;2023-04-01T17:05:51;19.70;68.50
47414;DHT22;33163;0.000;0.000;2023-04-01T17:08:29;19.70;68.80
47414;DHT22;33163;0.000;0.000;2023-04-01T17:11:08;19.70;69.00
47414;DHT22;33163;0.000;0.000;2023-04-01T17:13:41;19.60;69.10
47414;DHT22;33163;0.000;0.000;2023-04-01T17:16:14;19.60;69.10
47414;DHT22;33163;0.000;0.000;2023-04-01T17:18:51;19.60;69.50
47414;DHT22;33163;0.000;0.000;2023-04-01T17:21:25;19.60;69.40
47414;DHT22;33163;0.000;0.000;2023-04-01T17:24:02;19.50;69.10
47414;DHT22;33163;0.000;0.000;2023-04-01T17:26:37;19.50;69.30
47414;DHT22;33163;0.000;0.000;2023-04-01T17:29:12;19.50;69.20
47414;DHT22;33163;0.000;0.000;2023-04-01T17:31:46;19.50;69.00
47414;DHT22;33163;0.000;0.000;2023-04-01T17:34:27;19.50;69.00
47414;DHT22;33163;0.000;0.000;2023-04-01T17:37:22;19.50;68.80
47414;DHT22;33163;0.000;0.000;2023-04-01T17:40:00;19.50;68.90
47414;DHT22;33163;0.000;0.000;2023-04-01T17:42:38;19.50;68.90
47414;DHT22;33163;0.000;0.000;2023-04-01T17:45:11;19.50;68.90
47414;DHT22;33163;0.000;0.000;2023-04-01T17:47:58;19.40;68.60
47414;DHT22;33163;0.000;0.000;2023-04-01T17:50:36;19.40;68.90
47414;DHT22;33163;0.000;0.000;2023-04-01T17:53:20;19.40;68.80
47414;DHT22;33163;0.000;0.000;2023-04-01T17:55:59;19.40;68.90